x

Southeast Bering Sea -205nm Wnw Of Dutch Harbor, Ak (46073) Wave Buoy

7:50pm - Thu 10th Jul 2014 All times are UTC.

  • Sig Wave height 3.3ft
  • Swell Direction
  • Peak Period 7s
  • Average Period 5s
  • Wind
    11mph, 13mph gusts
  • Sea Temp 50°f
  • Air Temp 49°f
  • Sea Pressure 1011.8mb

More Historic Weather Station data

Upgrade to MSW Pro to gain access to the past 30 days of data for over 8000 Wavebouys and Weather Stations around the globe.

Join Pro

Comparision Forecast

View Surf forecast
   
Thu 07/10 7:50pm 3.5ft 7s 5s 11 13 mph 1011.8mb 50f 49f
6:50pm 4ft 8s 6s 9 11 mph 1011.7mb 50f 49f
5:50pm 4.5ft 8s 6s 9 11 mph 1011.6mb 50f 49f
4:50pm 4ft 7s 6s 9
mph
1011mb 50f 49f
3:50pm 4ft 6s 5s 13 16 mph 1010.6mb 50f 49f
2:50pm 3.5ft 6s 5s 13 16 mph 1010.6mb 50f 49f
1:50pm 3.5ft 6s 5s 11
mph
1010.7mb 49f 49f
12:50pm 3.5ft 5s 5s 9 11 mph 1010.7mb 49f 49f
11:50am 3.5ft 5s 5s 9 11 mph 1010.8mb 49f 49f
10:50am 3ft 5s 5s 9 11 mph 1010.8mb 49f 49f
9:50am 3ft 5s 5s 11 13 mph 1010.8mb 50f 49f
8:50am 3ft 8s 5s 9 11 mph 1011mb 50f 49f
7:50am 3ft 7s 5s 11 13 mph 1010.8mb 50f 49f
6:50am 3.5ft 8s 5s 11 13 mph 1010.7mb 50f 49f
5:50am 3.5ft 8s 5s 11 13 mph 1010.5mb 50f 49f
4:50am 3.5ft 8s 5s 13 16 mph 1010.5mb 50f 49f
3:50am 3.5ft 8s 5s 13
mph
1010.7mb 50f 49f
2:50am 3.5ft 8s 5s 11 13 mph 1010.8mb 50f 49f
1:50am 3.5ft 8s 6s 13 16 mph 1011mb 50f 49f
12:50am 3.5ft 8s 5s 11 13 mph 1011.2mb 50f 49f
Wed 07/09 11:50pm 2.5ft 8s 5s 11 13 mph 1011.3mb 50f 49f
10:50pm 2.5ft 7s 5s 11 16 mph 1011.4mb 50f 49f
9:50pm 2.5ft 7s 5s 11 13 mph 1011.4mb 50f 49f
8:50pm 2ft 7s 4s 9 11 mph 1011.4mb 50f 49f
7:50pm 1.6ft 3s 4s 11
mph
1011.1mb 50f 49f
6:50pm 1.6ft 3s 4s 7 11 mph 1011.2mb 50f 49f
5:50pm 1.6ft 14s 4s 11 13 mph 1010.9mb 50f 49f
4:50pm 1.3ft 14s 4s 11 13 mph 1010.8mb 50f 49f
3:50pm 1.6ft 11s 4s 11 13 mph 1010.7mb 50f 49f
2:50pm 1.3ft 15s 4s 9 11 mph 1010.7mb 50f 49f
1:50pm  -   -   -  9 11 mph 1010.9mb 50f 50f
12:50pm 1.6ft 3s 4s 11
mph
1011.1mb 50f 50f
11:50am 1.6ft 3s 4s 11 13 mph 1011.2mb 50f 50f
10:50am  -   -   -  9 11 mph 1011.2mb 50f 50f
9:50am 1.3ft 7s 4s 11 16 mph 1011mb 50f 50f
8:50am 1.3ft 7s 5s 11 13 mph 1010.9mb 50f 50f
7:50am 1.3ft 7s 4s 7
mph
1010.9mb 50f 50f
6:50am 1.3ft 8s 4s 7 9 mph 1010.6mb 50f 50f
5:50am 1.3ft 7s 5s 9 11 mph 1010.4mb 50f 50f
4:50am 1.6ft 7s 4s 7 9 mph 1010.2mb 50f 50f
3:50am 1.6ft 7s 4s 9
mph
1010mb 50f 50f
2:50am 1.6ft 7s 4s 9 11 mph 1010mb 50f 50f
1:50am 1.6ft 5s 4s 11 13 mph 1010mb 50f 50f
12:50am 1.6ft 5s 4s 11 13 mph 1010mb 50f 50f
Tue 07/08 11:50pm 1.6ft 8s 4s 11 13 mph 1010.1mb 50f 50f
10:50pm 1.6ft 7s 4s 9 11 mph 1010.1mb 50f 50f
9:50pm 1.6ft 6s 4s 11
mph
1009.9mb 50f 50f
8:50pm 1.6ft 7s 4s 9 11 mph 1009.7mb 49f 50f
7:50pm 1.6ft 7s 4s 9 11 mph 1009.4mb 49f 49f
6:50pm 2ft 5s 4s 9 11 mph 1009.1mb 49f 49f
5:50pm 1.6ft 6s 4s 11 16 mph 1008.6mb 49f 49f
4:50pm 2ft 8s 4s 9 11 mph 1008.4mb 49f 49f
3:50pm 2ft 7s 5s 11
mph
1008.4mb 50f 49f
2:50pm 1.6ft 7s 5s 9 11 mph 1008.4mb 50f 49f
1:50pm 1.6ft 7s 5s 9 11 mph 1008.4mb 50f 49f
12:50pm 1.6ft 7s 5s 9 11 mph 1008.4mb 50f 49f
11:50am 2ft 7s 6s 9 11 mph 1008.7mb 50f 49f
10:50am 1.6ft 7s 6s 9
mph
1008.8mb 50f 49f
9:50am 2ft 6s 6s 9 11 mph 1009mb 49f 49f
8:50am 1.6ft 7s 6s 9
mph
1009.2mb 49f 49f
7:50am 1.6ft 7s 5s 9 11 mph 1009mb 49f 49f
6:50am 2ft 7s 5s 9 11 mph 1008.8mb 49f 49f
5:50am 2ft 7s 6s 9
mph
1008.7mb 50f 49f
4:50am 2ft 7s 6s 9 11 mph 1008.8mb 50f 49f
3:50am 2ft 7s 6s 7
mph
1009.1mb 50f 50f
2:50am 2ft 7s 6s 7
mph
1009.2mb 50f 50f
1:50am 2ft 7s 6s 4 7 mph 1009.5mb 50f 50f
12:50am 2ft 7s 6s 4 7 mph 1009.7mb 50f 50f
Mon 07/07 11:50pm 2ft 7s 6s 4 7 mph 1009.8mb 50f 50f
10:50pm 2.5ft 7s 6s 4
mph
1010.1mb 50f 50f
9:50pm 2ft 7s 6s 4
mph
1010.1mb 50f 49f
8:50pm 1.6ft 7s 6s 2 4 mph 1010.4mb 49f 50f
7:50pm 1.6ft 7s 6s 4
mph
1010.5mb 49f 49f
6:50pm 1.6ft 7s 6s 4 7 mph 1010.2mb 49f 48f
5:50pm 2ft 7s 6s 7
mph
1010.4mb 49f 48f
4:50pm 1.6ft 7s 6s 4 7 mph 1010.5mb 49f 49f
3:50pm 1.6ft 6s 5s 7
mph
1010.5mb 49f 49f
2:50pm 1.6ft 7s 5s 4
mph
1010.6mb 49f 49f
1:50pm 1.6ft 5s 5s 4 7 mph 1010.5mb 49f 49f
12:50pm 1.6ft 6s 5s 4
mph
1010.8mb 49f 49f
11:50am 1.6ft 6s 5s 4 7 mph 1010.8mb 49f 49f
10:50am 1.6ft 6s 5s 2 4 mph 1010.9mb 49f 49f
9:50am 1.6ft 6s 5s 7
mph
1010.9mb 49f 49f
8:50am 1.6ft 6s 5s 7
mph
1011mb 49f 49f
7:50am 1.6ft 6s 5s 4 7 mph 1010.9mb 49f 49f
6:50am 1.6ft 6s 5s 7 9 mph 1010.7mb 49f 49f
5:50am 1.6ft 6s 5s 9
mph
1010.6mb 49f 49f
4:50am 1.6ft 6s 5s 7 9 mph 1010.6mb 49f 49f
3:50am 2ft 6s 5s 7 9 mph 1010.5mb 49f 49f
2:50am 1.6ft 6s 5s 9
mph
1010.5mb 49f 49f
1:50am 1.6ft 5s 5s 7 9 mph 1010.7mb 49f 49f
12:50am 1.6ft 6s 5s 7 9 mph 1010.8mb 49f 49f
Sun 07/06 11:50pm 1.6ft 6s 5s 7 9 mph 1010.6mb 49f 48f
10:50pm 2ft 6s 5s 4 7 mph 1010.4mb 49f 48f
9:50pm 1.6ft 6s 5s 7 9 mph 1010.4mb 49f 48f
8:50pm 1.6ft 6s 5s 7 9 mph 1010.6mb 49f 48f